Flight Track Log - Related Links

Times and Time Zones

All times are in EDT time to prevent confusion due to time zone crossing. See the JZA725 flight status page for this flight to view local times or setup timezone preferences in your user account.

Time Position Orientation Groundspeed Altitude Reporting Facility
EDT Latitude Longitude Course Direction KTS MPH feet Rate Location/Type
Wed 05:53:15 PM 46.7468 -71.4740 72° East  Level FlightAware Approximate
Wed 05:54:14 PM 46.7667 -71.3833 234° Southwest 110 127 1,200  Level Montreal Center
Wed 05:55:14 PM 46.7500 -71.4167 226° Southwest 120 138 2,600 1,400 Climbing Montreal Center
Wed 05:56:14 PM 46.7167 -71.4667 199° South 130 150 4,000 1,450 Climbing Montreal Center
Wed 05:57:14 PM 46.6833 -71.4833 234° Southwest 130 150 5,500 1,500 Climbing Montreal Center
Wed 05:58:14 PM 46.6667 -71.5167 244° Southwest 130 150 7,000 1,300 Climbing Montreal Center
Wed 05:59:14 PM 46.6500 -71.5667 226° Southwest 140 161 8,100 1,050 Climbing Montreal Center
Wed 06:00:14 PM 46.6167 -71.6167 215° Southwest 160 184 9,100 1,050 Climbing Montreal Center
Wed 06:01:14 PM 46.5833 -71.6500 215° Southwest 170 196 10,200 1,150 Climbing Montreal Center
Wed 06:02:14 PM 46.5333 -71.7000 226° Southwest 170 196 11,400 1,050 Climbing Montreal Center
Wed 06:03:14 PM 46.5000 -71.7500 226° Southwest 180 207 12,300 1,000 Climbing Montreal Center
Wed 06:04:14 PM 46.4667 -71.8000 215° Southwest 190 219 13,400 850 Climbing Montreal Center
Wed 06:05:14 PM 46.4167 -71.8500 229° Southwest 190 219 14,000 300 Climbing Montreal Center
Wed 06:06:14 PM 46.3667 -71.9333 215° Southwest 230 265 14,000  Level Montreal Center
Wed 06:07:14 PM 46.3167 -71.9833 240° Southwest 240 276 14,000 -50 Level Montreal Center
Wed 06:08:14 PM 46.2833 -72.0667 207° Southwest 250 288 13,900 -50 Descending Montreal Center
Wed 06:09:14 PM 46.2167 -72.1167 223° Southwest 250 288 13,900  Level Montreal Center
Wed 06:10:14 PM 46.1667 -72.1833 229° Southwest 250 288 13,900  Level Montreal Center
Wed 06:11:14 PM 46.1167 -72.2667 234° Southwest 250 288 13,900 50 Level Montreal Center
Wed 06:12:14 PM 46.0833 -72.3333 229° Southwest 250 288 14,000 50 Climbing Montreal Center
Wed 06:13:14 PM 46.0333 -72.4167 229° Southwest 240 276 14,000  Level Montreal Center
Wed 06:14:14 PM 45.9833 -72.5000 223° Southwest 250 288 14,000  Level Montreal Center
Wed 06:15:14 PM 45.9333 -72.5667 240° Southwest 250 288 14,000 -150 Level Montreal Center
Wed 06:16:14 PM 45.9000 -72.6500 223° Southwest 250 288 13,700 -500 Descending Montreal Center
Wed 06:17:14 PM 45.8500 -72.7167 229° Southwest 260 299 13,000 -800 Descending Montreal Center
Wed 06:18:14 PM 45.8000 -72.8000 234° Southwest 260 299 12,100 -950 Descending Montreal Center
Wed 06:19:14 PM 45.7500 -72.9000 223° Southwest 270 311 11,100 -1,000 Descending Montreal Center
Wed 06:20:14 PM 45.7000 -72.9667 257° West 260 299 10,100 -1,000 Descending Montreal Center
Wed 06:21:14 PM 45.6833 -73.0667 257° West 250 288 9,100 -1,000 Descending Montreal Center
Wed 06:22:14 PM 45.6667 -73.1667 270° West 250 288 8,100 -1,000 Descending Montreal Center
Wed 06:23:14 PM 45.6667 -73.2500 257° West 240 276 7,100 -1,000 Descending Montreal Center
Wed 06:24:14 PM 45.6500 -73.3500 254° West 240 276 6,100 -1,000 Descending Montreal Center
Wed 06:25:14 PM 45.6333 -73.4333 254° West 240 276 5,100 -1,200 Descending Montreal Center
Wed 06:26:14 PM 45.6167 -73.5167 215° Southwest 230 265 3,700 -1,200 Descending Montreal Center
Wed 06:27:14 PM 45.5667 -73.5667 226° Southwest 220 253 2,700 -1,000 Descending Montreal Center
Wed 06:28:14 PM 45.5333 -73.6167 226° Southwest 190 219 1,700 -800 Descending Montreal Center
Wed 06:29:14 PM 45.5000 -73.6667 215° Southwest 170 196 1,100 -650 Descending Montreal Center
Wed 06:30:14 PM 45.4667 -73.7000 180° South 110 127 400 -500 Descending Montreal Center
Wed 06:31:14 PM 45.4333 -73.7000 325° Northwest 150 173 100 -188 Descending Montreal Center
Wed 06:31:50 PM 45.4500 -73.7167 325° Northwest 30 35 100  Level Montreal Center

Login

Don't have an account? Register now (free) for customized features, flight alerts, and more!